Time;durP1;ratioP1;P1;durP2;ratioP2;P2;SDS_P1;SDS_P2;PMS_P1;PMS_P2;Temp;Humidity;BMP_temperature;BMP_pressure;BME280_temperature;BME280_humidity;BME280_pressure;Samples;Min_cycle;Max_cycle;Signal;HPM_P1;HPM_P2
2021/05/18 00:00:03;;;;;;;1.63;0.63;;;15.10;59.60;;;;;;5010282;28;20456;-45
2021/05/18 00:02:29;;;;;;;2.00;0.70;;;15.30;58.70;;;;;;5005982;28;20474;-46
2021/05/18 00:04:54;;;;;;;0.90;0.70;;;15.30;58.40;;;;;;5002449;28;20532;-44
2021/05/18 00:07:22;;;;;;;0.73;0.70;;;15.40;58.30;;;;;;5012831;28;20248;-44
2021/05/18 00:12:35;;;;;;;0.60;0.60;;;15.20;58.40;;;;;;5013263;28;20452;-48
2021/05/18 00:15:03;;;;;;;0.60;0.50;;;15.10;58.30;;;;;;5012115;28;20940;-49
2021/05/18 00:17:29;;;;;;;0.80;0.50;;;15.10;58.80;;;;;;5009233;28;20444;-48
2021/05/18 00:19:55;;;;;;;0.60;0.50;;;15.10;59.00;;;;;;5019905;28;20516;-47
2021/05/18 00:22:20;;;;;;;0.50;0.40;;;15.30;58.50;;;;;;5013069;28;20198;-46
2021/05/18 00:24:46;;;;;;;0.77;0.50;;;15.30;58.30;;;;;;5008102;28;20649;-45
2021/05/18 00:27:12;;;;;;;0.63;0.63;;;15.30;58.70;;;;;;5008386;28;20189;-48
2021/05/18 00:29:38;;;;;;;1.93;0.50;;;15.30;58.90;;;;;;5005748;28;20528;-44
2021/05/18 00:32:04;;;;;;;0.83;0.60;;;15.30;59.80;;;;;;5012265;28;20888;-49
2021/05/18 00:34:30;;;;;;;0.57;0.50;;;15.00;60.90;;;;;;5011660;28;20248;-49
2021/05/18 00:36:56;;;;;;;0.70;0.63;;;15.10;61.60;;;;;;5011761;28;20441;-45
2021/05/18 00:39:21;;;;;;;0.70;0.50;;;15.30;61.80;;;;;;5007029;28;20642;-44
2021/05/18 00:41:48;;;;;;;2.03;0.53;;;15.40;61.80;;;;;;5007411;28;20197;-48
2021/05/18 00:44:13;;;;;;;0.50;0.50;;;15.40;61.80;;;;;;5010682;28;20217;-45
2021/05/18 00:46:39;;;;;;;0.70;0.50;;;15.50;61.40;;;;;;5010744;28;20469;-46
2021/05/18 00:49:05;;;;;;;1.10;0.60;;;15.50;61.50;;;;;;5009408;28;20453;-46
2021/05/18 00:51:31;;;;;;;0.53;0.53;;;15.80;61.00;;;;;;5007592;28;20229;-48
2021/05/18 00:53:59;;;;;;;0.70;0.57;;;16.10;60.50;;;;;;5009676;28;20194;-44
2021/05/18 00:59:00;;;;;;;0.90;0.70;;;16.40;59.30;;;;;;5007677;28;20495;-44
2021/05/18 01:01:26;;;;;;;0.70;0.70;;;16.50;58.90;;;;;;5010095;28;20476;-46
2021/05/18 01:03:53;;;;;;;1.63;0.80;;;16.50;58.70;;;;;;4998917;28;20445;-44
2021/05/18 01:06:28;;;;;;;0.67;0.67;;;16.30;58.60;;;;;;5000312;28;20596;-44
2021/05/18 01:08:56;;;;;;;1.77;0.70;;;16.10;58.70;;;;;;5009638;28;20989;-45
2021/05/18 01:11:25;;;;;;;0.77;0.60;;;16.00;59.10;;;;;;5011566;28;20863;-45
2021/05/18 01:14:02;;;;;;;1.20;0.80;;;15.80;59.60;;;;;;5000120;28;20445;-44
2021/05/18 01:16:32;;;;;;;2.73;0.60;;;15.80;59.70;;;;;;5008800;28;20453;-44
2021/05/18 01:18:57;;;;;;;0.70;0.70;;;16.00;59.80;;;;;;5006399;28;20602;-44
2021/05/18 01:21:24;;;;;;;0.90;0.80;;;16.00;59.40;;;;;;5004605;28;20873;-47
2021/05/18 01:23:50;;;;;;;2.00;0.70;;;16.00;59.40;;;;;;5009448;28;20581;-44
2021/05/18 01:26:16;;;;;;;0.60;0.53;;;15.90;59.50;;;;;;5009560;28;20820;-44
2021/05/18 01:28:43;;;;;;;1.33;0.53;;;16.00;59.50;;;;;;5004512;28;20476;-45
2021/05/18 01:31:10;;;;;;;1.90;0.70;;;16.00;58.90;;;;;;5009168;28;20449;-44
2021/05/18 01:33:36;;;;;;;1.20;0.80;;;16.10;58.80;;;;;;5006968;28;20875;-45
2021/05/18 01:36:04;;;;;;;0.70;0.70;;;16.10;59.00;;;;;;5012034;28;20445;-44
2021/05/18 01:38:39;;;;;;;2.20;0.80;;;16.10;58.80;;;;;;5008906;28;20235;-44
2021/05/18 01:43:52;;;;;;;1.37;0.60;;;16.20;58.90;;;;;;5006284;28;20448;-44
2021/05/18 01:46:19;;;;;;;1.37;0.70;;;16.10;58.50;;;;;;5009805;28;20531;-44
2021/05/18 01:48:48;;;;;;;0.60;0.50;;;16.30;58.50;;;;;;5009240;28;20463;-44
2021/05/18 01:51:14;;;;;;;1.10;0.70;;;16.10;58.60;;;;;;5008392;28;20436;-44
2021/05/18 01:53:40;;;;;;;1.23;0.60;;;16.20;58.80;;;;;;5007771;28;21085;-49
2021/05/18 01:58:34;;;;;;;0.80;0.50;;;16.40;58.40;;;;;;5003721;28;20236;-49
2021/05/18 02:01:00;;;;;;;0.80;0.80;;;16.40;58.50;;;;;;5000969;28;20755;-48
2021/05/18 02:03:26;;;;;;;1.13;0.70;;;16.50;58.70;;;;;;5008229;28;20194;-48
2021/05/18 02:05:52;;;;;;;0.60;0.60;;;16.60;58.50;;;;;;5010899;28;20445;-49
2021/05/18 02:08:18;;;;;;;1.47;0.90;;;16.60;58.30;;;;;;4999438;28;20528;-46
2021/05/18 02:10:44;;;;;;;0.60;0.60;;;16.70;58.20;;;;;;5008418;28;20237;-44
2021/05/18 02:13:10;;;;;;;9.07;0.90;;;16.90;58.00;;;;;;5009512;28;20292;-44
2021/05/18 02:15:56;;;;;;;1.10;0.83;;;16.90;57.50;;;;;;5009280;28;20843;-44
2021/05/18 02:26:24;;;;;;;0.73;0.60;;;17.40;56.50;;;;;;5011306;28;20998;-45
2021/05/18 02:28:50;;;;;;;1.20;0.80;;;17.50;56.50;;;;;;5006208;28;20473;-45
2021/05/18 02:31:17;;;;;;;0.93;0.70;;;17.70;56.50;;;;;;5005150;28;20494;-44
2021/05/18 02:33:48;;;;;;;0.60;0.60;;;17.80;56.20;;;;;;5007663;28;20449;-45
2021/05/18 02:36:14;;;;;;;0.60;0.60;;;18.00;55.80;;;;;;5004301;28;20467;-45
2021/05/18 02:38:41;;;;;;;0.60;0.43;;;18.00;55.40;;;;;;5006905;28;21083;-44
2021/05/18 02:41:07;;;;;;;1.53;0.80;;;18.20;55.10;;;;;;5007504;28;20560;-44
2021/05/18 02:43:43;;;;;;;1.10;0.57;;;18.30;54.90;;;;;;5005659;28;20618;-44
2021/05/18 02:49:08;;;;;;;0.60;0.60;;;18.30;54.70;;;;;;5009224;28;20637;-44
2021/05/18 02:49:14;;;;;;;0.60;0.60;;;18.30;54.20;;;;;;5007130;28;20445;-45
2021/05/18 02:51:43;;;;;;;1.63;0.70;;;18.40;54.30;;;;;;5007877;28;20453;-44
2021/05/18 02:54:11;;;;;;;1.13;0.63;;;18.40;54.30;;;;;;5008731;28;20449;-45
2021/05/18 02:59:35;;;;;;;1.40;0.53;;;18.50;54.10;;;;;;4974881;28;20493;-44
2021/05/18 03:02:01;;;;;;;0.83;0.80;;;18.60;53.90;;;;;;5008219;28;20445;-44
2021/05/18 03:04:28;;;;;;;0.80;0.70;;;18.60;53.80;;;;;;5001841;28;20198;-44
2021/05/18 03:06:54;;;;;;;3.13;0.57;;;18.60;53.40;;;;;;4995485;28;20548;-44
2021/05/18 03:09:21;;;;;;;0.50;0.50;;;18.60;53.60;;;;;;5005475;28;20783;-44
2021/05/18 03:11:50;;;;;;;1.03;0.70;;;18.50;53.30;;;;;;5005483;28;20511;-45
2021/05/18 03:14:17;;;;;;;0.70;0.60;;;18.60;53.40;;;;;;5008915;28;20433;-45
2021/05/18 03:16:44;;;;;;;0.50;0.50;;;18.50;52.80;;;;;;5005911;28;20484;-45
2021/05/18 03:19:10;;;;;;;0.77;0.60;;;18.50;52.90;;;;;;5008015;28;21160;-46
2021/05/18 03:21:38;;;;;;;0.60;0.60;;;18.50;53.00;;;;;;4999510;28;20529;-44
2021/05/18 03:24:05;;;;;;;0.70;0.70;;;18.40;52.70;;;;;;4993170;28;20453;-45
2021/05/18 03:26:31;;;;;;;0.60;0.50;;;18.40;52.50;;;;;;5000359;28;20553;-46
2021/05/18 03:29:16;;;;;;;0.50;0.50;;;18.50;53.00;;;;;;5004723;28;20523;-46
2021/05/18 03:37:10;;;;;;;2.00;0.77;;;18.60;52.90;;;;;;5012874;28;20444;-45
2021/05/18 03:39:36;;;;;;;0.80;0.63;;;18.60;52.70;;;;;;5008663;28;20488;-44
2021/05/18 03:42:07;;;;;;;0.80;0.70;;;18.70;52.40;;;;;;5007775;28;20445;-45
2021/05/18 03:52:44;;;;;;;2.20;1.00;;;18.20;52.50;;;;;;5008180;28;20455;-44
2021/05/18 04:03:29;;;;;;;1.07;0.70;;;18.10;52.80;;;;;;5013105;28;20886;-45
2021/05/18 04:19:10;;;;;;;0.90;0.57;;;17.50;54.10;;;;;;4981321;28;20493;-44
2021/05/18 04:21:56;;;;;;;0.70;0.60;;;17.50;54.70;;;;;;5012109;28;20456;-44
2021/05/18 05:02:36;;;;;;;0.93;0.80;;;17.20;54.60;;;;;;5007129;28;20444;-48
2021/05/18 05:06:51;;;;;;;1.17;1.07;;;17.10;54.50;;;;;;5010342;28;20797;-45
2021/05/18 05:09:32;;;;;;;1.00;0.87;;;17.10;54.50;;;;;;5007615;28;20440;-47
2021/05/18 05:14:42;;;;;;;5.37;1.90;;;16.90;55.00;;;;;;5009228;28;20809;-45
2021/05/18 05:17:08;;;;;;;1.90;1.63;;;16.90;55.00;;;;;;5010727;28;20532;-44
2021/05/18 05:19:35;;;;;;;1.20;1.10;;;16.60;55.40;;;;;;5012631;28;21067;-44
2021/05/18 05:22:01;;;;;;;1.70;1.30;;;16.70;55.30;;;;;;5007358;28;20225;-48
2021/05/18 05:24:27;;;;;;;3.50;1.00;;;16.60;55.50;;;;;;5000875;28;20446;-44
2021/05/18 05:26:54;;;;;;;1.10;0.70;;;16.60;55.50;;;;;;5004055;28;20447;-44
2021/05/18 05:29:20;;;;;;;3.90;1.20;;;16.40;55.40;;;;;;5006102;28;20796;-45
2021/05/18 05:31:47;;;;;;;1.30;0.97;;;16.50;55.60;;;;;;5006843;28;20452;-44
2021/05/18 05:34:13;;;;;;;0.80;0.60;;;16.80;55.70;;;;;;5006667;28;20447;-45
2021/05/18 05:36:39;;;;;;;2.00;0.90;;;16.80;55.20;;;;;;5008290;28;20449;-44
2021/05/18 05:39:20;;;;;;;0.80;0.70;;;16.90;55.00;;;;;;5008957;28;20492;-44
2021/05/18 05:41:45;;;;;;;2.97;0.90;;;16.90;55.00;;;;;;5007380;28;20209;-45
2021/05/18 05:44:11;;;;;;;0.60;0.60;;;16.90;55.30;;;;;;5007899;28;20432;-44
2021/05/18 05:46:37;;;;;;;2.13;0.67;;;17.00;55.30;;;;;;4995560;28;20650;-44
2021/05/18 05:49:03;;;;;;;1.20;0.80;;;17.00;54.70;;;;;;5006363;28;20273;-44
2021/05/18 05:51:29;;;;;;;1.10;0.83;;;17.10;54.70;;;;;;5003399;28;20190;-45
2021/05/18 05:53:58;;;;;;;1.37;1.00;;;17.00;54.80;;;;;;5011765;28;20461;-45
2021/05/18 05:56:24;;;;;;;0.60;0.60;;;16.90;55.30;;;;;;5008569;28;20433;-44
2021/05/18 05:58:49;;;;;;;4.53;1.13;;;16.70;56.50;;;;;;5000499;28;20891;-46
2021/05/18 06:01:16;;;;;;;1.00;0.90;;;16.70;57.30;;;;;;5008479;28;20186;-44
2021/05/18 06:03:42;;;;;;;0.80;0.80;;;16.80;57.60;;;;;;5008876;28;20202;-44
2021/05/18 06:06:08;;;;;;;1.60;1.13;;;16.70;57.90;;;;;;5005845;28;20924;-43
2021/05/18 06:08:39;;;;;;;1.77;0.77;;;16.80;57.90;;;;;;5011637;28;20437;-44
2021/05/18 06:14:06;;;;;;;1.20;1.07;;;16.60;57.80;;;;;;5008653;28;20793;-46
2021/05/18 06:48:30;;;;;;;5.70;1.30;;;17.00;58.40;;;;;;4992194;28;20465;-44
2021/05/18 06:50:56;;;;;;;3.37;1.80;;;17.10;58.60;;;;;;5000633;28;20481;-44
2021/05/18 06:53:22;;;;;;;6.93;1.53;;;17.10;58.70;;;;;;5000643;28;20216;-45
2021/05/18 06:55:49;;;;;;;2.53;1.23;;;17.10;58.70;;;;;;5002452;28;20461;-44
2021/05/18 06:58:19;;;;;;;2.73;1.33;;;17.20;58.80;;;;;;4997370;28;20967;-45
2021/05/18 07:00:46;;;;;;;3.87;1.53;;;17.20;58.70;;;;;;5008972;28;20441;-44
2021/05/18 07:03:15;;;;;;;2.73;1.20;;;17.30;59.00;;;;;;5004414;28;20836;-44
2021/05/18 07:06:02;;;;;;;2.33;1.30;;;17.50;59.00;;;;;;5002545;28;20547;-44
2021/05/18 07:10:53;;;;;;;1.40;1.10;;;17.70;58.70;;;;;;5009676;28;20437;-44
2021/05/18 07:13:20;;;;;;;1.60;0.93;;;17.80;58.70;;;;;;4997571;28;20248;-44
2021/05/18 07:15:45;;;;;;;0.90;0.83;;;17.90;59.00;;;;;;5011074;28;20232;-47
2021/05/18 07:18:11;;;;;;;0.93;0.90;;;17.90;58.50;;;;;;5000313;28;20519;-44
2021/05/18 07:20:37;;;;;;;2.40;0.90;;;17.90;58.20;;;;;;5009931;28;20784;-45
2021/05/18 07:23:11;;;;;;;4.37;1.70;;;17.90;57.70;;;;;;5005487;28;20654;-47
2021/05/18 07:25:38;;;;;;;1.53;1.20;;;17.70;57.80;;;;;;5009020;28;20207;-44
2021/05/18 07:28:07;;;;;;;3.87;1.00;;;17.40;57.60;;;;;;5008250;28;20543;-44
2021/05/18 07:30:34;;;;;;;1.93;1.10;;;17.20;57.80;;;;;;5007544;28;20940;-44
2021/05/18 07:33:00;;;;;;;4.57;1.20;;;17.20;58.00;;;;;;5009498;28;20523;-45
2021/05/18 07:35:26;;;;;;;0.80;0.80;;;17.10;57.50;;;;;;5008371;28;20540;-44
2021/05/18 07:37:51;;;;;;;3.03;1.37;;;17.30;57.40;;;;;;5006136;28;20238;-46
2021/05/18 07:40:17;;;;;;;0.93;0.73;;;17.10;57.80;;;;;;5009528;28;20221;-46
2021/05/18 07:42:43;;;;;;;2.40;0.97;;;17.20;58.00;;;;;;5007032;28;20197;-45
2021/05/18 07:45:09;;;;;;;1.60;1.10;;;17.30;57.30;;;;;;5007246;28;20198;-44
2021/05/18 07:47:37;;;;;;;0.73;0.73;;;17.20;58.00;;;;;;5008632;28;20668;-44
2021/05/18 07:50:10;;;;;;;1.10;1.00;;;17.20;58.70;;;;;;5007100;28;20455;-44
2021/05/18 08:06:16;;;;;;;1.03;0.90;;;17.60;56.40;;;;;;4996082;28;20471;-45
2021/05/18 08:08:42;;;;;;;2.80;1.10;;;17.50;56.30;;;;;;5010078;28;20445;-44
2021/05/18 08:11:07;;;;;;;2.37;1.20;;;17.50;56.50;;;;;;5010715;28;20194;-44
2021/05/18 08:13:34;;;;;;;2.37;1.10;;;17.60;56.80;;;;;;5002634;28;20444;-46
2021/05/18 08:21:32;;;;;;;3.53;1.00;;;17.80;56.90;;;;;;5022041;28;20432;-45
2021/05/18 09:28:58;;;;;;;2.80;1.30;;;17.50;56.40;;;;;;4963022;28;20948;-45
2021/05/18 10:36:38;;;;;;;2.03;0.73;;;20.00;52.50;;;;;;5002471;28;20442;-46
2021/05/18 10:39:17;;;;;;;2.83;0.90;;;19.90;52.90;;;;;;5002966;28;20302;-46
2021/05/18 10:41:42;;;;;;;2.67;0.80;;;19.70;50.90;;;;;;5009124;28;20448;-46
2021/05/18 10:44:08;;;;;;;1.23;0.80;;;19.50;50.30;;;;;;5010411;28;20445;-45
2021/05/18 10:46:50;;;;;;;2.77;1.10;;;19.40;49.80;;;;;;5011137;28;20194;-47
2021/05/18 10:49:33;;;;;;;1.10;0.80;;;19.40;51.50;;;;;;5011095;28;20202;-47
2021/05/18 10:52:01;;;;;;;1.80;1.00;;;19.50;53.40;;;;;;5005605;28;20590;-47
2021/05/18 10:54:42;;;;;;;1.67;1.00;;;19.70;53.10;;;;;;5008743;28;20445;-46
2021/05/18 10:57:12;;;;;;;1.40;0.70;;;19.80;54.80;;;;;;5010671;28;20448;-46
2021/05/18 10:59:55;;;;;;;1.53;1.07;;;20.20;55.00;;;;;;5009992;28;20491;-49
2021/05/18 11:02:26;;;;;;;0.87;0.80;;;20.30;51.90;;;;;;5009802;28;20440;-48
2021/05/18 11:04:53;;;;;;;1.40;1.00;;;20.30;53.20;;;;;;5002318;28;20960;-46
2021/05/18 11:07:22;;;;;;;2.57;0.90;;;20.60;50.80;;;;;;5006471;28;20870;-46
2021/05/18 11:09:49;;;;;;;1.73;1.10;;;20.70;49.00;;;;;;5007632;28;20469;-46
2021/05/18 11:12:16;;;;;;;3.43;1.23;;;20.30;48.40;;;;;;4997415;28;20449;-48
2021/05/18 11:14:58;;;;;;;2.17;1.00;;;20.40;50.10;;;;;;5008715;28;20495;-45
2021/05/18 11:17:29;;;;;;;0.97;0.80;;;20.70;50.00;;;;;;5009602;28;20445;-46
2021/05/18 11:20:04;;;;;;;2.90;1.23;;;20.70;46.20;;;;;;5010049;28;20524;-48
2021/05/18 11:25:33;;;;;;;1.00;0.87;;;20.50;45.20;;;;;;5009144;28;20536;-46
2021/05/18 11:28:30;;;;;;;2.47;0.90;;;20.50;45.70;;;;;;5008168;28;20469;-46
2021/05/18 11:30:58;;;;;;;3.90;1.03;;;20.30;45.80;;;;;;4998370;28;20441;-45
2021/05/18 11:33:35;;;;;;;1.90;0.90;;;20.30;45.50;;;;;;5000315;28;20455;-47
2021/05/18 11:36:13;;;;;;;3.60;1.20;;;20.10;46.00;;;;;;5002105;28;20454;-48
2021/05/18 11:38:48;;;;;;;1.60;0.70;;;20.30;48.40;;;;;;4999595;28;20497;-47
2021/05/18 11:41:28;;;;;;;1.33;0.90;;;20.20;43.80;;;;;;5009757;28;20498;-47
2021/05/18 11:43:56;;;;;;;4.10;1.10;;;20.30;43.70;;;;;;5014732;28;20597;-46
2021/05/18 11:46:23;;;;;;;1.80;0.90;;;20.60;44.50;;;;;;5011358;28;20441;-47
2021/05/18 11:49:08;;;;;;;1.20;0.87;;;20.60;41.90;;;;;;5017771;28;20441;-46
2021/05/18 11:51:45;;;;;;;1.97;1.03;;;20.70;43.70;;;;;;5006025;28;20445;-46
2021/05/18 11:54:13;;;;;;;4.50;1.00;;;20.70;43.10;;;;;;5012738;28;20951;-45
2021/05/18 11:56:39;;;;;;;2.80;0.80;;;20.70;43.60;;;;;;5009342;28;20463;-47
2021/05/18 11:59:06;;;;;;;1.57;0.90;;;20.60;43.50;;;;;;5005951;28;20492;-45
2021/05/18 12:01:35;;;;;;;1.23;1.00;;;20.60;44.30;;;;;;5010754;28;20449;-47
2021/05/18 12:04:00;;;;;;;0.97;0.83;;;20.20;40.50;;;;;;5004013;28;20456;-48
2021/05/18 12:06:26;;;;;;;2.70;0.90;;;20.10;41.40;;;;;;5011945;28;20444;-48
2021/05/18 12:08:57;;;;;;;2.87;0.97;;;19.70;41.90;;;;;;5012246;28;20203;-48
2021/05/18 12:11:23;;;;;;;0.80;0.80;;;19.40;43.50;;;;;;5013761;28;20190;-51
2021/05/18 12:13:51;;;;;;;3.80;0.80;;;19.10;44.40;;;;;;5005668;28;21006;-47
2021/05/18 12:16:24;;;;;;;1.37;0.80;;;19.00;45.40;;;;;;5013835;28;20652;-49
2021/05/18 12:18:55;;;;;;;1.17;0.70;;;18.90;45.30;;;;;;5013557;28;20493;-45
2021/05/18 12:21:29;;;;;;;1.63;0.70;;;18.50;45.30;;;;;;5014460;28;20432;-46
2021/05/18 12:24:22;;;;;;;0.87;0.70;;;18.60;45.40;;;;;;5012808;28;20425;-45
2021/05/18 12:27:02;;;;;;;2.40;0.90;;;18.80;45.40;;;;;;5013850;28;20452;-45
2021/05/18 12:29:42;;;;;;;1.50;0.70;;;19.00;44.30;;;;;;5015997;28;20862;-45
2021/05/18 12:32:34;;;;;;;1.90;0.73;;;19.30;45.30;;;;;;4995925;28;20441;-45
2021/05/18 12:35:03;;;;;;;1.13;0.73;;;19.70;45.20;;;;;;4990345;28;20456;-46
2021/05/18 12:37:34;;;;;;;0.70;0.70;;;19.90;44.80;;;;;;4995602;28;20425;-49
2021/05/18 12:40:09;;;;;;;1.70;0.80;;;20.10;44.50;;;;;;5006199;28;20523;-45
2021/05/18 12:42:35;;;;;;;2.30;0.93;;;20.20;44.10;;;;;;5013900;28;20797;-45
2021/05/18 12:45:11;;;;;;;1.37;0.97;;;20.20;43.30;;;;;;5014330;28;20425;-45
2021/05/18 12:47:41;;;;;;;3.07;0.77;;;20.40;44.80;;;;;;5013850;28;20551;-45
2021/05/18 12:50:11;;;;;;;6.10;1.10;;;20.60;43.10;;;;;;5011801;28;20473;-45
2021/05/18 12:52:38;;;;;;;1.60;0.60;;;20.90;41.50;;;;;;5003274;28;20532;-45
2021/05/18 12:55:30;;;;;;;1.17;0.80;;;20.70;40.10;;;;;;5003863;28;20470;-45
2021/05/18 12:57:56;;;;;;;4.00;0.90;;;20.70;40.80;;;;;;4994035;28;20473;-46
2021/05/18 13:00:38;;;;;;;1.07;0.97;;;20.70;40.90;;;;;;4996804;28;20475;-45
2021/05/18 13:03:21;;;;;;;1.20;0.77;;;21.00;40.30;;;;;;5010246;28;20448;-45
2021/05/18 13:05:51;;;;;;;1.83;0.80;;;20.90;40.30;;;;;;4993698;28;20843;-45
2021/05/18 13:08:18;;;;;;;1.40;0.80;;;21.10;40.60;;;;;;4993772;28;20442;-46
2021/05/18 13:11:04;;;;;;;1.47;0.80;;;21.20;40.90;;;;;;4993851;28;20521;-45
2021/05/18 13:13:36;;;;;;;1.20;0.80;;;21.00;40.70;;;;;;4997167;28;20449;-45
2021/05/18 13:16:25;;;;;;;1.47;0.80;;;21.00;40.30;;;;;;5012736;28;20444;-45
2021/05/18 13:18:59;;;;;;;5.07;1.40;;;20.70;40.00;;;;;;5002344;28;20488;-46
2021/05/18 13:21:38;;;;;;;2.10;0.90;;;20.60;42.00;;;;;;5013521;28;20438;-45
2021/05/18 13:26:34;;;;;;;0.80;0.70;;;20.70;41.90;;;;;;5013877;28;20826;-46
2021/05/18 13:29:01;;;;;;;1.33;0.77;;;20.80;40.40;;;;;;5019497;28;20472;-44
2021/05/18 13:31:28;;;;;;;2.73;0.83;;;20.80;40.10;;;;;;5013114;28;20440;-45
2021/05/18 13:33:54;;;;;;;1.80;0.70;;;20.90;40.90;;;;;;5012993;28;20437;-45
2021/05/18 13:36:19;;;;;;;1.03;0.70;;;20.90;41.60;;;;;;5013687;28;20519;-47
2021/05/18 13:38:45;;;;;;;2.33;1.00;;;21.10;41.50;;;;;;5009160;28;20245;-46
2021/05/18 13:41:11;;;;;;;2.00;0.87;;;21.20;40.10;;;;;;5012865;28;20680;-46
2021/05/18 13:43:36;;;;;;;0.90;0.60;;;21.20;39.70;;;;;;5011215;28;20313;-52
2021/05/18 13:46:03;;;;;;;4.27;0.80;;;21.00;40.00;;;;;;5013371;28;20207;-45
2021/05/18 13:48:28;;;;;;;1.17;0.80;;;20.80;40.40;;;;;;5012396;28;20326;-48
2021/05/18 13:50:54;;;;;;;1.73;0.80;;;20.70;41.00;;;;;;5012579;28;20924;-48
2021/05/18 13:53:19;;;;;;;1.20;0.90;;;20.70;41.90;;;;;;5003829;28;20280;-46
2021/05/18 13:55:46;;;;;;;1.27;0.60;;;20.70;41.00;;;;;;4997220;28;20198;-47
2021/05/18 13:58:12;;;;;;;0.90;0.70;;;20.70;41.60;;;;;;4993018;28;20628;-45
2021/05/18 14:00:38;;;;;;;1.53;0.70;;;20.80;40.30;;;;;;5002581;28;20455;-47
2021/05/18 14:03:04;;;;;;;1.10;1.00;;;20.70;41.90;;;;;;5002695;28;20194;-45
2021/05/18 14:05:29;;;;;;;2.57;1.00;;;20.90;41.70;;;;;;5012750;28;20201;-45
2021/05/18 14:08:31;;;;;;;1.87;0.77;;;21.00;41.20;;;;;;5012448;28;20194;-46
2021/05/18 14:11:05;;;;;;;0.60;0.60;;;21.30;40.90;;;;;;5010363;28;20210;-47
2021/05/18 14:13:37;;;;;;;0.80;0.67;;;21.50;40.60;;;;;;5002973;28;20460;-45
2021/05/18 14:16:04;;;;;;;1.40;0.73;;;21.30;40.00;;;;;;4997492;28;20520;-45
2021/05/18 14:18:31;;;;;;;2.53;1.37;;;20.90;40.30;;;;;;4992444;28;20547;-45
2021/05/18 14:20:58;;;;;;;1.30;1.20;;;20.60;40.90;;;;;;4992482;28;20917;-47
2021/05/18 14:23:25;;;;;;;1.73;0.60;;;19.60;42.10;;;;;;4994194;28;20429;-49
2021/05/18 14:25:53;;;;;;;2.23;0.80;;;19.10;45.80;;;;;;4992807;28;20437;-45
2021/05/18 14:28:20;;;;;;;3.13;0.90;;;18.60;50.80;;;;;;4990933;28;21023;-45
2021/05/18 14:30:46;;;;;;;1.33;0.70;;;18.10;52.90;;;;;;5005528;28;20776;-45
2021/05/18 14:33:12;;;;;;;1.80;0.93;;;17.40;52.80;;;;;;5014013;28;20566;-46
2021/05/18 14:35:38;;;;;;;1.13;0.67;;;17.40;54.60;;;;;;5013621;28;20215;-45
2021/05/18 14:38:08;;;;;;;3.17;0.80;;;17.50;54.70;;;;;;5004531;28;20241;-46
2021/05/18 14:40:53;;;;;;;1.30;1.10;;;17.60;54.70;;;;;;5010694;28;20796;-47
2021/05/18 14:45:53;;;;;;;3.20;1.30;;;17.60;55.00;;;;;;5016125;28;20512;-46
2021/05/18 14:56:31;;;;;;;0.90;0.83;;;18.80;54.20;;;;;;5010452;28;20437;-47
2021/05/18 14:58:57;;;;;;;3.13;1.03;;;19.10;53.40;;;;;;5006231;28;20842;-45
2021/05/18 15:01:22;;;;;;;1.37;0.70;;;19.20;53.20;;;;;;5012565;28;20221;-46
2021/05/18 15:03:48;;;;;;;0.73;0.70;;;19.10;52.90;;;;;;5009655;28;20186;-51
2021/05/18 15:06:14;;;;;;;1.80;1.10;;;19.10;52.80;;;;;;5011883;28;20667;-47
2021/05/18 15:08:39;;;;;;;4.03;1.20;;;19.40;54.10;;;;;;5016250;28;20740;-45
2021/05/18 15:11:05;;;;;;;4.53;1.00;;;19.50;54.50;;;;;;5009794;28;20566;-45
2021/05/18 15:13:33;;;;;;;1.00;0.70;;;19.50;53.50;;;;;;5008103;28;20190;-46
2021/05/18 15:15:58;;;;;;;0.70;0.60;;;19.30;52.00;;;;;;5009992;28;20586;-47
2021/05/18 15:18:25;;;;;;;0.90;0.60;;;19.30;49.90;;;;;;5020679;28;20534;-45
2021/05/18 15:20:50;;;;;;;1.43;0.50;;;19.50;49.30;;;;;;5012368;28;20567;-45
2021/05/18 15:23:16;;;;;;;0.70;0.60;;;19.60;49.10;;;;;;5007327;28;20449;-47
2021/05/18 15:25:42;;;;;;;1.17;0.70;;;19.70;49.70;;;;;;5008044;28;20224;-46
2021/05/18 15:28:07;;;;;;;2.20;0.80;;;20.10;48.80;;;;;;5000509;28;20277;-46
2021/05/18 15:30:33;;;;;;;0.70;0.70;;;19.70;46.10;;;;;;5006141;28;20571;-46
2021/05/18 15:32:58;;;;;;;1.80;0.70;;;19.60;46.60;;;;;;5008304;28;20190;-47
2021/05/18 15:35:24;;;;;;;1.00;0.90;;;19.80;46.50;;;;;;5006422;28;20205;-46
2021/05/18 15:37:50;;;;;;;1.53;0.90;;;19.80;47.00;;;;;;5010001;28;21506;-46
2021/05/18 15:40:16;;;;;;;0.97;0.67;;;20.00;47.50;;;;;;5009557;28;20201;-46
2021/05/18 15:42:41;;;;;;;1.33;0.87;;;19.90;46.60;;;;;;5000941;28;20205;-47
2021/05/18 15:45:08;;;;;;;1.67;0.60;;;19.90;46.90;;;;;;5005383;28;20437;-45
2021/05/18 15:47:34;;;;;;;0.80;0.73;;;20.00;46.50;;;;;;5008711;28;20197;-46
2021/05/18 15:50:00;;;;;;;1.73;0.60;;;20.20;47.10;;;;;;5004871;28;20473;-46
2021/05/18 15:52:25;;;;;;;0.90;0.60;;;20.20;46.80;;;;;;5010270;28;20472;-47
2021/05/18 15:54:51;;;;;;;1.00;0.70;;;20.30;46.60;;;;;;5009512;28;20186;-46
2021/05/18 15:57:17;;;;;;;1.43;0.70;;;20.30;46.10;;;;;;5006659;28;20591;-46
2021/05/18 15:59:50;;;;;;;1.53;0.90;;;20.10;46.20;;;;;;5008824;28;20312;-46
2021/05/18 16:02:17;;;;;;;1.73;0.80;;;20.20;46.50;;;;;;5004000;28;20194;-46
2021/05/18 16:04:42;;;;;;;0.90;0.60;;;20.30;45.50;;;;;;5009067;28;20475;-48
2021/05/18 16:07:10;;;;;;;1.73;0.80;;;20.40;46.40;;;;;;5011178;28;20919;-46
2021/05/18 16:09:36;;;;;;;1.20;0.50;;;20.40;45.50;;;;;;5010305;28;20325;-45
2021/05/18 16:12:02;;;;;;;1.13;0.60;;;20.30;44.10;;;;;;5008230;28;20920;-47
2021/05/18 16:14:27;;;;;;;2.37;0.80;;;20.30;44.20;;;;;;5003706;28;20205;-46
2021/05/18 16:16:53;;;;;;;0.80;0.80;;;20.20;44.70;;;;;;5010606;28;20213;-46
2021/05/18 16:19:19;;;;;;;2.37;0.80;;;20.20;45.60;;;;;;5008524;28;20256;-46
2021/05/18 16:21:45;;;;;;;0.80;0.80;;;20.20;45.60;;;;;;5000359;28;20528;-47
2021/05/18 16:24:11;;;;;;;1.23;0.90;;;20.00;43.60;;;;;;4996541;28;20190;-48
2021/05/18 16:26:37;;;;;;;1.17;0.90;;;19.80;45.60;;;;;;5010472;28;20447;-46
2021/05/18 16:29:03;;;;;;;6.03;1.17;;;19.60;47.30;;;;;;5010224;28;20213;-50
2021/05/18 16:31:30;;;;;;;1.77;0.90;;;19.30;48.00;;;;;;5012669;28;20208;-49
2021/05/18 16:33:57;;;;;;;2.83;1.07;;;19.10;49.00;;;;;;5003752;28;20441;-47
2021/05/18 16:36:23;;;;;;;3.50;1.00;;;19.10;50.20;;;;;;5005990;28;20434;-46
2021/05/18 16:38:49;;;;;;;3.73;0.90;;;18.70;49.90;;;;;;5003733;28;20507;-45
2021/05/18 16:41:14;;;;;;;1.97;0.60;;;18.10;51.40;;;;;;5010280;28;20429;-46
2021/05/18 16:43:40;;;;;;;0.80;0.70;;;18.00;52.00;;;;;;5011334;28;20194;-48
2021/05/18 16:46:08;;;;;;;2.10;0.97;;;17.90;50.80;;;;;;5012509;28;20563;-45
2021/05/18 16:48:34;;;;;;;3.27;1.07;;;18.00;51.20;;;;;;5012385;28;20260;-46
2021/05/18 16:51:03;;;;;;;1.40;1.10;;;18.20;51.40;;;;;;5011847;28;20519;-45
2021/05/18 16:53:31;;;;;;;2.50;1.20;;;18.10;51.20;;;;;;5011049;28;20248;-46
2021/05/18 16:55:57;;;;;;;1.93;0.90;;;18.20;51.90;;;;;;5012073;28;20489;-47
2021/05/18 16:58:23;;;;;;;3.73;1.00;;;18.30;52.00;;;;;;5012912;28;20851;-51
2021/05/18 17:00:49;;;;;;;2.30;1.13;;;18.40;52.20;;;;;;5018272;28;20432;-46
2021/05/18 17:03:15;;;;;;;2.40;1.30;;;18.50;53.00;;;;;;5010167;28;20494;-46
2021/05/18 17:05:41;;;;;;;1.10;0.80;;;18.60;52.10;;;;;;5013830;28;20194;-46
2021/05/18 17:08:06;;;;;;;3.70;1.10;;;18.70;51.80;;;;;;5010453;28;20206;-46
2021/05/18 17:10:35;;;;;;;2.10;1.07;;;18.80;52.10;;;;;;5009920;28;21168;-47
2021/05/18 17:13:00;;;;;;;1.73;1.30;;;18.80;52.10;;;;;;5015876;28;20198;-47
2021/05/18 17:15:28;;;;;;;2.37;1.20;;;18.90;52.50;;;;;;5024738;28;20941;-48
2021/05/18 17:17:55;;;;;;;2.30;1.13;;;18.90;52.30;;;;;;5004057;28;20558;-47
2021/05/18 17:20:21;;;;;;;3.30;1.93;;;19.00;51.90;;;;;;5016731;28;20932;-45
2021/05/18 17:22:47;;;;;;;3.77;1.40;;;19.00;51.90;;;;;;5012563;28;20449;-44
2021/05/18 17:25:14;;;;;;;2.03;1.00;;;19.00;52.20;;;;;;5019335;28;20441;-44
2021/05/18 17:27:40;;;;;;;1.70;0.90;;;19.00;52.10;;;;;;5013735;28;20252;-44
2021/05/18 17:30:09;;;;;;;1.97;0.90;;;19.00;52.50;;;;;;5021137;28;20441;-48
2021/05/18 17:32:35;;;;;;;1.10;0.90;;;19.00;52.40;;;;;;5017474;28;20498;-44
2021/05/18 17:35:01;;;;;;;2.40;1.17;;;19.00;52.60;;;;;;5013087;28;20917;-46
2021/05/18 17:37:26;;;;;;;1.60;1.20;;;18.90;53.00;;;;;;5011524;28;20479;-46
2021/05/18 17:39:52;;;;;;;2.00;1.00;;;18.90;53.40;;;;;;5013075;28;20301;-44
2021/05/18 17:42:19;;;;;;;1.27;0.90;;;18.90;53.50;;;;;;5011560;28;20654;-44
2021/05/18 17:44:46;;;;;;;1.57;1.13;;;18.90;53.80;;;;;;5013208;28;20229;-44
2021/05/18 17:47:13;;;;;;;2.20;1.60;;;18.90;53.50;;;;;;5007119;28;20506;-45
2021/05/18 17:49:39;;;;;;;1.27;1.17;;;18.80;53.60;;;;;;5010323;28;20456;-45
2021/05/18 17:52:08;;;;;;;1.17;1.07;;;18.50;53.30;;;;;;5011639;28;20802;-44
2021/05/18 17:54:39;;;;;;;1.00;0.90;;;17.90;53.40;;;;;;5011615;28;20463;-44
2021/05/18 17:57:07;;;;;;;1.40;1.30;;;17.60;54.40;;;;;;5006370;28;20448;-46